Terminal Aerodrome Forecast
Issued by NWS

Home | Current Version | Previous Version | Text Only | Print | Product List | Glossary On
Versions: 1 2 3 4 5 6 7 8 9 10 11 12 13 14 15 16 17 18 19 20
000
FTUS43 KGRB 240300 AAA
TAFMTW
TAF AMD
KMTW 240350Z 2404/2424 20003KT P6SM SCT010 OVC035
      TEMPO 2404/2407 3SM BR BKN010
     FM240700 18004KT 3SM BR OVC010
      TEMPO 2407/2410 1SM -DZ BR OVC004
     FM241500 01007KT 4SM BR OVC008
     FM241800 01010G15KT 6SM BR OVC012
     FM242200 36013G22KT 6SM -SN SCT012 OVC020=

USA.gov is the U.S. government's official web portal to all federal, state and local government web resources and services.